Dades meteomassalio
Diari Summary for Gener 17, 2017 Units:  English    Metric   Both
« Previous Day
Next Day »
Diari Semanal Mensual Anual Personalitzat
  Maxima: Minima: Mijana:
Temperatura: TemperatureC °F -0.3 °F 4.9 °F
Rosada: DewpointC °F -12.6 °F -4.2 °F
Humitat: Humidity % 25 % 54 %
Velocitat del vent: WindSpeedKMH mph 16.7 mph 34.7 mph
Racha vent: WindSpeedGustKMH mph - -
Vent:- - NW
Pressio: PressurehPa in 1014.8 in -
Pluja: 0.0 in    
Historical Graphs
 
 
Tabular Data for Gener 17, 2017
Time Temperature Dew Point Pressure Wind Wind Speed Wind Gust Humidity Rainfall Rate (Hourly) solar Conditions
TemperatureC °F DewpointC °F PressurehPa in Calm     Humidity % HourlyPrecipMM in SolarRadiationWatts/m^2 W/m2 Conditions
00:01 8.1 °F 4.7 °F 1016.5 in NW 44.4 mph 44.4 mph 79 % 0.0 in 0.0 W/m2 CLR
00:06 8.1 °F 4.7 °F 1016.8 in NW 35.2 mph 35.2 mph 79 % 0.0 in 0.0 W/m2 CLR
00:11 8.1 °F 4.7 °F 1016.8 in NW 42.6 mph 42.6 mph 79 % 0.0 in 0.0 W/m2 CLR
00:16 8.1 °F 4.5 °F 1016.5 in NW 41.8 mph 41.8 mph 78 % 0.0 in 0.0 W/m2 CLR
00:21 8.1 °F 4.5 °F 1016.5 in NW 38.9 mph 38.9 mph 78 % 0.0 in 0.0 W/m2 CLR
00:26 8.1 °F 4.5 °F 1016.5 in NW 42.6 mph 42.6 mph 78 % 0.0 in 0.0 W/m2 CLR
00:31 8.1 °F 4.5 °F 1016.5 in NW 31.5 mph 31.5 mph 78 % 0.0 in 0.0 W/m2 CLR
00:36 8.1 °F 4.4 °F 1016.5 in NW 35.2 mph 35.2 mph 78 % 0.0 in 0.0 W/m2 CLR
00:41 8.2 °F 4.4 °F 1016.5 in NW 44.4 mph 44.4 mph 77 % 0.0 in 0.0 W/m2 CLR
00:46 8.2 °F 4.2 °F 1016.5 in NW 44.4 mph 44.4 mph 76 % 0.0 in 0.0 W/m2 CLR
00:51 8.3 °F 4.3 °F 1016.5 in NW 62.9 mph 62.9 mph 76 % 0.0 in 0.0 W/m2
00:56 8.3 °F 4.2 °F 1016.1 in NW 42.6 mph 42.6 mph 75 % 0.0 in 0.0 W/m2 CLR
01:01 8.3 °F 4.1 °F 1016.5 in NNW 41.8 mph 41.8 mph 75 % 0.0 in 0.0 W/m2 CLR
01:06 8.3 °F 4.1 °F 1016.5 in NNW 61.1 mph 61.1 mph 75 % 0.0 in 0.0 W/m2 CLR
01:11 8.3 °F 4.1 °F 1016.1 in NNW 46.3 mph 46.3 mph 75 % 0.0 in 0.0 W/m2 CLR
01:16 8.2 °F 4.1 °F 1016.1 in NW 38.9 mph 38.9 mph 75 % 0.0 in 0.0 W/m2 CLR
01:21 8.2 °F 4.1 °F 1016.5 in NW 43.4 mph 43.4 mph 75 % 0.0 in 0.0 W/m2 CLR
01:26 8.3 °F 3.9 °F 1016.1 in NNW 50.0 mph 50.0 mph 74 % 0.0 in 0.0 W/m2 CLR
01:31 8.3 °F 3.9 °F 1016.1 in NNW 42.6 mph 42.6 mph 74 % 0.0 in 0.0 W/m2 CLR
01:36 8.3 °F 3.9 °F 1016.1 in NW 42.6 mph 42.6 mph 74 % 0.0 in 0.0 W/m2 CLR
01:41 8.3 °F 3.9 °F 1016.1 in NW 45.1 mph 45.1 mph 74 % 0.0 in 0.0 W/m2 CLR
01:46 8.3 °F 3.9 °F 1016.1 in NW 43.4 mph 43.4 mph 74 % 0.0 in 0.0 W/m2 CLR
01:51 8.4 °F 3.8 °F 1016.1 in NNW 50.0 mph 50.0 mph 73 % 0.0 in 0.0 W/m2 CLR
01:56 8.4 °F 3.8 °F 1016.1 in NNW 35.4 mph 35.4 mph 73 % 0.0 in 0.0 W/m2 CLR
02:01 8.3 °F 3.8 °F 1015.8 in NNW 42.6 mph 42.6 mph 73 % 0.0 in 0.0 W/m2 CLR
02:06 8.3 °F 3.8 °F 1015.8 in NNW 45.1 mph 45.1 mph 73 % 0.0 in 0.0 W/m2 CLR
02:11 8.4 °F 3.8 °F 1015.5 in NW 57.9 mph 57.9 mph 73 % 0.0 in 0.0 W/m2 CLR
02:16 8.4 °F 3.8 °F 1015.8 in NW 42.6 mph 42.6 mph 73 % 0.0 in 0.0 W/m2 CLR
02:21 8.4 °F 3.8 °F 1015.8 in NNW 53.7 mph 53.7 mph 73 % 0.0 in 0.0 W/m2 CLR
02:26 8.4 °F 3.8 °F 1015.8 in NW 51.8 mph 51.8 mph 73 % 0.0 in 0.0 W/m2 CLR
02:31 8.3 °F 3.8 °F 1015.8 in NW 44.4 mph 44.4 mph 73 % 0.0 in 0.0 W/m2 CLR
02:36 8.3 °F 3.8 °F 1015.8 in NW 59.2 mph 59.2 mph 73 % 0.0 in 0.0 W/m2 CLR
02:41 8.4 °F 3.8 °F 1015.8 in NW 49.9 mph 49.9 mph 73 % 0.0 in 0.0 W/m2 CLR
02:46 8.4 °F 3.6 °F 1015.8 in NNW 48.1 mph 48.1 mph 72 % 0.0 in 0.0 W/m2 CLR
02:51 8.4 °F 3.7 °F 1015.8 in NNW 50.0 mph 50.0 mph 72 % 0.0 in 0.0 W/m2 CLR
02:56 8.4 °F 3.7 °F 1015.5 in NNW 55.5 mph 55.5 mph 72 % 0.0 in 0.0 W/m2 CLR
03:01 8.4 °F 3.8 °F 1015.8 in NNW 55.5 mph 55.5 mph 73 % 0.0 in 0.0 W/m2 CLR
03:06 8.3 °F 3.8 °F 1015.5 in NW 48.1 mph 48.1 mph 73 % 0.0 in 0.0 W/m2 CLR
03:11 8.4 °F 3.8 °F 1015.5 in NW 48.1 mph 48.1 mph 73 % 0.0 in 0.0 W/m2
03:16 8.3 °F 3.8 °F 1015.5 in NNW 45.1 mph 45.1 mph 73 % 0.0 in 0.0 W/m2 CLR
03:21 8.3 °F 3.8 °F 1015.5 in NNW 50.0 mph 50.0 mph 73 % 0.0 in 0.0 W/m2 CLR
03:26 8.3 °F 3.8 °F 1015.5 in NNW 53.7 mph 53.7 mph 73 % 0.0 in 0.0 W/m2 CLR
03:31 8.3 °F 3.7 °F 1015.1 in NNW 42.6 mph 42.6 mph 73 % 0.0 in 0.0 W/m2 CLR
03:36 8.3 °F 3.7 °F 1015.1 in NNW 59.2 mph 59.2 mph 73 % 0.0 in 0.0 W/m2 CLR
03:41 8.3 °F 3.7 °F 1015.1 in NNW 50.0 mph 50.0 mph 73 % 0.0 in 0.0 W/m2 CLR
03:46 8.2 °F 3.7 °F 1014.8 in NNW 55.5 mph 55.5 mph 73 % 0.0 in 0.0 W/m2 CLR
03:51 8.2 °F 3.6 °F 1014.8 in NW 48.1 mph 48.1 mph 73 % 0.0 in 0.0 W/m2 CLR
03:56 8.1 °F 3.6 °F 1014.8 in NNW 55.5 mph 55.5 mph 73 % 0.0 in 0.0 W/m2
04:01 8.1 °F 3.5 °F 1014.8 in NNW 50.0 mph 50.0 mph 73 % 0.0 in 0.0 W/m2 CLR
04:06 8.1 °F 3.5 °F 1014.8 in NW 48.1 mph 48.1 mph 73 % 0.0 in 0.0 W/m2 CLR
04:11 7.9 °F 3.4 °F 1014.8 in NW 38.9 mph 38.9 mph 73 % 0.0 in 0.0 W/m2 CLR
04:16 7.9 °F 3.3 °F 1014.8 in NNW 45.1 mph 45.1 mph 73 % 0.0 in 0.0 W/m2 CLR
04:21 7.9 °F 3.4 °F 1014.8 in NNW 46.3 mph 46.3 mph 73 % 0.0 in 0.0 W/m2 CLR
04:26 7.9 °F 3.2 °F 1014.8 in NNW 53.7 mph 53.7 mph 72 % 0.0 in 0.0 W/m2 CLR
04:31 7.8 °F 3.1 °F 1014.8 in NNW 43.4 mph 43.4 mph 72 % 0.0 in 0.0 W/m2 CLR
04:36 7.8 °F 3.1 °F 1014.8 in NNW 50.0 mph 50.0 mph 72 % 0.0 in 0.0 W/m2 CLR
04:41 7.7 °F 3.0 °F 1014.8 in NNW 42.6 mph 42.6 mph 72 % 0.0 in 0.0 W/m2 CLR
04:46 7.7 °F 3.0 °F 1014.8 in NNW 55.5 mph 55.5 mph 72 % 0.0 in 0.0 W/m2
04:51 7.7 °F 2.9 °F 1014.8 in NW 53.7 mph 53.7 mph 72 % 0.0 in 0.0 W/m2 CLR
04:56 7.6 °F 2.7 °F 1015.1 in NW 38.9 mph 38.9 mph 71 % 0.0 in 0.0 W/m2 CLR
04:57 7.6 °F 2.9 °F 1015.1 in NW 38.9 mph 38.9 mph 72 % 0.0 in 0.0 W/m2 CLR
05:02 7.6 °F 2.7 °F 1015.1 in NW 55.5 mph 55.5 mph 71 % 0.0 in 0.0 W/m2 CLR
05:07 7.5 °F 2.6 °F 1015.1 in NW 33.8 mph 33.8 mph 71 % 0.0 in 0.0 W/m2 CLR
05:12 7.3 °F 2.4 °F 1015.5 in NW 33.8 mph 33.8 mph 71 % 0.0 in 0.0 W/m2 CLR
05:17 7.3 °F 2.4 °F 1015.1 in NNW 44.4 mph 44.4 mph 71 % 0.0 in 0.0 W/m2 CLR
05:22 7.2 °F 2.3 °F 1015.1 in NNW 38.9 mph 38.9 mph 71 % 0.0 in 0.0 W/m2 CLR
05:27 7.1 °F 2.2 °F 1015.5 in NNW 40.2 mph 40.2 mph 71 % 0.0 in 0.0 W/m2 CLR
05:32 7.1 °F 2.2 °F 1015.5 in NNW 37.0 mph 37.0 mph 71 % 0.0 in 0.0 W/m2 CLR
05:37 6.9 °F 2.2 °F 1015.5 in NW 41.8 mph 41.8 mph 72 % 0.0 in 0.0 W/m2 CLR
05:42 6.9 °F 2.2 °F 1015.5 in NW 46.7 mph 46.7 mph 72 % 0.0 in 0.0 W/m2 CLR
05:47 6.8 °F 2.1 °F 1015.5 in NW 41.8 mph 41.8 mph 72 % 0.0 in 0.0 W/m2 CLR
05:52 6.8 °F 2.1 °F 1015.5 in NNW 37.0 mph 37.0 mph 72 % 0.0 in 0.0 W/m2 CLR
05:57 6.7 °F 2.0 °F 1015.8 in NW 50.0 mph 50.0 mph 72 % 0.0 in 0.0 W/m2 CLR
06:02 6.5 °F 1.8 °F 1015.8 in NW 46.3 mph 46.3 mph 72 % 0.0 in 0.0 W/m2 CLR
06:07 6.4 °F 1.9 °F 1015.8 in NNW 37.0 mph 37.0 mph 73 % 0.0 in 0.0 W/m2 CLR
06:12 6.3 °F 1.8 °F 1015.8 in NNW 50.0 mph 50.0 mph 73 % 0.0 in 0.0 W/m2 CLR
06:17 6.1 °F 1.6 °F 1015.8 in NNW 38.9 mph 38.9 mph 73 % 0.0 in 0.0 W/m2 CLR
06:22 6.1 °F 1.6 °F 1016.1 in NNW 42.6 mph 42.6 mph 73 % 0.0 in 0.0 W/m2 CLR
06:27 6.0 °F 1.5 °F 1016.1 in NNW 42.6 mph 42.6 mph 73 % 0.0 in 0.0 W/m2 CLR
06:32 5.9 °F 1.4 °F 1016.1 in NW 40.7 mph 40.7 mph 73 % 0.0 in 0.0 W/m2 CLR
06:37 5.8 °F 1.3 °F 1016.1 in NW 46.3 mph 46.3 mph 73 % 0.0 in 0.0 W/m2 CLR
06:43 5.8 °F 1.3 °F 1016.1 in NW 46.3 mph 46.3 mph 73 % 0.0 in 0.0 W/m2 CLR
06:48 5.6 °F 1.2 °F 1016.5 in NW 46.3 mph 46.3 mph 73 % 0.0 in 0.0 W/m2 CLR
06:53 5.5 °F 1.1 °F 1016.5 in NW 42.6 mph 42.6 mph 73 % 0.0 in 0.0 W/m2 CLR
06:58 5.4 °F 1.0 °F 1016.5 in NNW 38.9 mph 38.9 mph 73 % 0.0 in 0.0 W/m2 CLR
07:03 5.3 °F 0.9 °F 1016.8 in NNW 38.9 mph 38.9 mph 73 % 0.0 in 0.0 W/m2 CLR
07:08 5.3 °F 0.8 °F 1017.2 in NNW 27.8 mph 27.8 mph 73 % 0.0 in 0.0 W/m2 CLR
07:13 5.2 °F 0.7 °F 1017.2 in NNW 29.6 mph 29.6 mph 73 % 0.0 in 0.0 W/m2 CLR
07:18 5.0 °F 0.7 °F 1017.5 in NNW 27.8 mph 27.8 mph 74 % 0.0 in 0.0 W/m2 CLR
07:23 4.9 °F 0.7 °F 1017.5 in NNW 25.9 mph 25.9 mph 74 % 0.0 in 0.0 W/m2 CLR
07:28 4.8 °F 0.6 °F 1017.8 in NNW 27.8 mph 27.8 mph 74 % 0.0 in 0.0 W/m2 CLR
07:33 4.7 °F 0.5 °F 1017.8 in North 24.1 mph 24.1 mph 74 % 0.0 in 0.0 W/m2 CLR
07:38 4.6 °F 0.4 °F 1017.8 in NNW 25.9 mph 25.9 mph 74 % 0.0 in 0.0 W/m2 CLR
07:43 4.5 °F 0.3 °F 1017.8 in NNW 24.1 mph 24.1 mph 74 % 0.0 in 0.0 W/m2 CLR
07:48 4.3 °F 0.1 °F 1017.8 in NNW 24.1 mph 24.1 mph 74 % 0.0 in 0.0 W/m2 CLR
07:53 4.3 °F -0.1 °F 1017.8 in NNW 22.5 mph 22.5 mph 73 % 0.0 in 0.0 W/m2 CLR
07:58 4.3 °F -0.1 °F 1018.2 in NNW 31.5 mph 31.5 mph 73 % 0.0 in 0.0 W/m2 CLR
08:03 4.2 °F -0.4 °F 1018.2 in NNW 27.8 mph 27.8 mph 72 % 0.0 in 0.0 W/m2 CLR
08:08 4.1 °F -0.5 °F 1018.2 in NW 30.6 mph 30.6 mph 72 % 0.0 in 0.0 W/m2 CLR
08:13 4.1 °F -0.6 °F 1018.5 in NW 29.6 mph 29.6 mph 72 % 0.0 in 0.0 W/m2 CLR
08:18 3.9 °F -0.8 °F 1018.5 in NW 35.2 mph 35.2 mph 71 % 0.0 in 0.0 W/m2 CLR
08:23 3.8 °F -0.9 °F 1018.5 in NW 32.2 mph 32.2 mph 71 % 0.0 in 5.0 W/m2 BKN
08:28 3.8 °F -1.2 °F 1018.5 in NW 35.2 mph 35.2 mph 70 % 0.0 in 7.0 W/m2 BKN
08:33 3.7 °F -1.2 °F 1018.8 in NW 38.9 mph 38.9 mph 70 % 0.0 in 9.0 W/m2 BKN
08:38 3.6 °F -1.3 °F 1018.8 in NW 31.5 mph 31.5 mph 70 % 0.0 in 11.0 W/m2 BKN
08:43 3.5 °F -1.4 °F 1018.8 in NW 27.8 mph 27.8 mph 70 % 0.0 in 12.0 W/m2 BKN
08:48 3.5 °F -1.4 °F 1018.8 in NW 31.5 mph 31.5 mph 70 % 0.0 in 14.0 W/m2 BKN
08:53 3.4 °F -1.6 °F 1018.8 in NW 27.8 mph 27.8 mph 70 % 0.0 in 25.0 W/m2 BKN
08:58 3.3 °F -1.7 °F 1018.8 in NW 29.6 mph 29.6 mph 70 % 0.0 in 37.0 W/m2 BKN
09:03 3.3 °F -1.9 °F 1018.8 in NW 29.6 mph 29.6 mph 69 % 0.0 in 37.0 W/m2 BKN
09:08 3.3 °F -1.9 °F 1018.8 in NW 31.5 mph 31.5 mph 69 % 0.0 in 47.0 W/m2 BKN
09:13 3.3 °F -2.0 °F 1018.8 in NW 37.0 mph 37.0 mph 68 % 0.0 in 58.0 W/m2 BKN
09:18 3.3 °F -2.2 °F 1019.2 in NW 35.2 mph 35.2 mph 67 % 0.0 in 72.0 W/m2 BKN
09:23 3.3 °F -2.2 °F 1019.2 in NW 37.0 mph 37.0 mph 67 % 0.0 in 79.0 W/m2 BKN
09:28 3.4 °F -2.4 °F 1019.2 in NW 37.0 mph 37.0 mph 66 % 0.0 in 100.0 W/m2 BKN
09:33 3.4 °F -2.4 °F 1019.2 in NW 35.2 mph 35.2 mph 66 % 0.0 in 113.0 W/m2 BKN
09:38 3.4 °F -2.8 °F 1019.2 in NW 35.4 mph 35.4 mph 64 % 0.0 in 114.0 W/m2 BKN
09:43 3.5 °F -2.7 °F 1019.5 in NNW 31.5 mph 31.5 mph 64 % 0.0 in 146.0 W/m2 BKN
09:48 3.5 °F -2.9 °F 1019.2 in NW 29.6 mph 29.6 mph 63 % 0.0 in 162.0 W/m2 BKN
09:53 3.6 °F -2.8 °F 1019.5 in NW 29.6 mph 29.6 mph 63 % 0.0 in 169.0 W/m2 SCT
09:58 3.6 °F -3.2 °F 1019.5 in NW 31.5 mph 31.5 mph 61 % 0.0 in 162.0 W/m2 SCT
10:03 3.7 °F -3.1 °F 1019.5 in NW 38.9 mph 38.9 mph 61 % 0.0 in 206.0 W/m2 BKN
10:08 3.7 °F -3.3 °F 1019.5 in NW 31.5 mph 31.5 mph 60 % 0.0 in 200.0 W/m2 SCT
10:13 3.8 °F -3.2 °F 1019.5 in NW 29.6 mph 29.6 mph 60 % 0.0 in 236.0 W/m2 SCT
10:18 3.9 °F -3.3 °F 1019.9 in NW 31.5 mph 31.5 mph 59 % 0.0 in 251.0 W/m2 SCT
10:24 4.1 °F -3.2 °F 1019.9 in NW 25.9 mph 25.9 mph 59 % 0.0 in 267.0 W/m2 SCT
10:29 4.1 °F -3.4 °F 1019.9 in NW 31.5 mph 31.5 mph 58 % 0.0 in 281.0 W/m2 SCT
10:34 4.2 °F -3.6 °F 1019.9 in NW 24.1 mph 24.1 mph 57 % 0.0 in 294.0 W/m2 SCT
10:39 4.3 °F -3.7 °F 1019.9 in NW 22.2 mph 22.2 mph 56 % 0.0 in 306.0 W/m2 FEW
10:44 4.4 °F -3.9 °F 1019.9 in NW 33.3 mph 33.3 mph 55 % 0.0 in 316.0 W/m2 FEW
10:49 4.3 °F -4.2 °F 1019.9 in NW 27.8 mph 27.8 mph 54 % 0.0 in 325.0 W/m2 FEW
10:54 4.4 °F -4.1 °F 1020.2 in NW 25.9 mph 25.9 mph 54 % 0.0 in 338.0 W/m2 FEW
10:59 4.7 °F -3.8 °F 1019.9 in NW 30.6 mph 30.6 mph 54 % 0.0 in 346.0 W/m2 FEW
11:04 4.8 °F -4.3 °F 1019.9 in NW 27.8 mph 27.8 mph 52 % 0.0 in 359.0 W/m2 FEW
11:09 4.8 °F -4.2 °F 1019.9 in NW 27.8 mph 27.8 mph 52 % 0.0 in 366.0 W/m2 FEW
11:14 4.9 °F -4.7 °F 1019.9 in NW 25.9 mph 25.9 mph 50 % 0.0 in 374.0 W/m2 FEW
11:19 5.0 °F -4.6 °F 1019.9 in NW 29.6 mph 29.6 mph 50 % 0.0 in 383.0 W/m2 FEW
11:24 5.1 °F -4.5 °F 1019.9 in NW 27.8 mph 27.8 mph 50 % 0.0 in 392.0 W/m2 FEW
11:29 5.1 °F -4.5 °F 1019.9 in NW 33.3 mph 33.3 mph 50 % 0.0 in 399.0 W/m2 FEW
11:34 5.1 °F -5.0 °F 1019.5 in NNW 29.6 mph 29.6 mph 48 % 0.0 in 410.0 W/m2 FEW
11:39 5.1 °F -4.8 °F 1019.2 in NW 40.7 mph 40.7 mph 49 % 0.0 in 415.0 W/m2 CLR
11:44 4.9 °F -5.2 °F 1019.2 in NNW 40.7 mph 40.7 mph 48 % 0.0 in 422.0 W/m2 CLR
11:49 4.8 °F -5.6 °F 1019.2 in NNW 40.2 mph 40.2 mph 47 % 0.0 in 427.0 W/m2 CLR
11:54 5.0 °F -5.4 °F 1019.2 in NNW 27.8 mph 27.8 mph 47 % 0.0 in 436.0 W/m2 CLR
11:59 5.2 °F -5.5 °F 1019.5 in NNW 25.9 mph 25.9 mph 46 % 0.0 in 438.0 W/m2 CLR
12:04 5.2 °F -5.8 °F 1019.9 in NNW 22.2 mph 22.2 mph 45 % 0.0 in 443.0 W/m2 CLR
12:09 5.3 °F -5.7 °F 1019.5 in NNW 27.8 mph 27.8 mph 45 % 0.0 in 448.0 W/m2 CLR
12:14 5.3 °F -5.7 °F 1019.5 in NNW 38.9 mph 38.9 mph 45 % 0.0 in 454.0 W/m2 CLR
12:19 5.2 °F -5.8 °F 1019.5 in NNW 31.5 mph 31.5 mph 45 % 0.0 in 457.0 W/m2 CLR
12:24 5.2 °F -6.1 °F 1019.2 in NNW 35.2 mph 35.2 mph 44 % 0.0 in 462.0 W/m2 CLR
12:29 5.3 °F -5.7 °F 1018.8 in NNW 35.2 mph 35.2 mph 45 % 0.0 in 464.0 W/m2 CLR
12:34 5.4 °F -5.9 °F 1019.2 in NNW 31.5 mph 31.5 mph 44 % 0.0 in 468.0 W/m2 CLR
12:39 5.4 °F -5.9 °F 1019.2 in NNW 31.5 mph 31.5 mph 44 % 0.0 in 471.0 W/m2 CLR
12:44 5.4 °F -6.2 °F 1018.8 in NNW 33.3 mph 33.3 mph 43 % 0.0 in 475.0 W/m2 CLR
12:49 5.6 °F -6.1 °F 1018.8 in NNW 33.3 mph 33.3 mph 43 % 0.0 in 475.0 W/m2 CLR
12:54 5.5 °F -6.1 °F 1019.2 in NNW 38.9 mph 38.9 mph 43 % 0.0 in 473.0 W/m2 CLR
12:59 5.4 °F -6.2 °F 1019.2 in NNW 31.5 mph 31.5 mph 43 % 0.0 in 476.0 W/m2 CLR
13:04 5.6 °F -6.0 °F 1019.2 in NW 27.8 mph 27.8 mph 43 % 0.0 in 475.0 W/m2 CLR
13:09 5.7 °F -5.9 °F 1019.2 in NW 27.8 mph 27.8 mph 43 % 0.0 in 476.0 W/m2 CLR
13:14 5.9 °F -6.4 °F 1018.8 in NW 40.7 mph 40.7 mph 41 % 0.0 in 480.0 W/m2 CLR
13:19 5.7 °F -6.2 °F 1018.5 in NW 33.8 mph 33.8 mph 42 % 0.0 in 478.0 W/m2 CLR
13:24 5.8 °F -6.5 °F 1018.5 in NW 38.9 mph 38.9 mph 41 % 0.0 in 478.0 W/m2 CLR
13:29 5.8 °F -6.8 °F 1018.8 in NW 37.0 mph 37.0 mph 40 % 0.0 in 476.0 W/m2 CLR
13:34 5.9 °F -6.4 °F 1018.8 in NNW 27.8 mph 27.8 mph 41 % 0.0 in 473.0 W/m2 CLR
13:39 6.1 °F -6.6 °F 1018.8 in NNW 30.6 mph 30.6 mph 40 % 0.0 in 471.0 W/m2 CLR
13:44 6.1 °F -6.6 °F 1018.5 in NNW 31.5 mph 31.5 mph 40 % 0.0 in 469.0 W/m2 CLR
13:49 6.3 °F -6.1 °F 1018.2 in NW 29.6 mph 29.6 mph 41 % 0.0 in 469.0 W/m2 CLR
13:54 6.2 °F -7.1 °F 1018.5 in NW 40.7 mph 40.7 mph 38 % 0.0 in 462.0 W/m2 CLR
13:59 6.2 °F -6.7 °F 1018.5 in NW 25.9 mph 25.9 mph 39 % 0.0 in 461.0 W/m2 CLR
14:04 6.2 °F -7.4 °F 1018.5 in NW 35.2 mph 35.2 mph 37 % 0.0 in 457.0 W/m2 CLR
14:09 6.4 °F -6.9 °F 1018.2 in NW 37.0 mph 37.0 mph 38 % 0.0 in 457.0 W/m2 CLR
14:14 6.3 °F -7.3 °F 1018.2 in NW 32.2 mph 32.2 mph 37 % 0.0 in 452.0 W/m2 CLR
14:19 6.4 °F -7.2 °F 1017.8 in NW 31.5 mph 31.5 mph 37 % 0.0 in 445.0 W/m2 CLR
14:24 6.6 °F -7.5 °F 1017.8 in NW 35.4 mph 35.4 mph 36 % 0.0 in 436.0 W/m2 CLR
14:29 6.6 °F -7.8 °F 1017.8 in NW 37.0 mph 37.0 mph 35 % 0.0 in 431.0 W/m2 CLR
14:34 6.6 °F -8.2 °F 1017.8 in NNW 37.0 mph 37.0 mph 34 % 0.0 in 424.0 W/m2 CLR
14:39 6.7 °F -8.1 °F 1017.5 in NW 32.2 mph 32.2 mph 34 % 0.0 in 420.0 W/m2 CLR
14:44 6.7 °F -9.3 °F 1017.8 in NW 40.7 mph 40.7 mph 31 % 0.0 in 418.0 W/m2 CLR
14:49 6.5 °F -9.4 °F 1017.8 in NW 40.7 mph 40.7 mph 31 % 0.0 in 404.0 W/m2 CLR
14:54 6.6 °F -9.4 °F 1017.8 in NNW 37.0 mph 37.0 mph 31 % 0.0 in 399.0 W/m2 CLR
14:59 6.8 °F -9.2 °F 1017.8 in NW 46.7 mph 46.7 mph 31 % 0.0 in 390.0 W/m2 CLR
15:04 6.7 °F -9.7 °F 1017.8 in NW 37.0 mph 37.0 mph 30 % 0.0 in 381.0 W/m2 CLR
15:09 6.6 °F -9.8 °F 1017.8 in NW 40.7 mph 40.7 mph 30 % 0.0 in 373.0 W/m2 CLR
15:14 6.4 °F -9.9 °F 1017.8 in NW 40.7 mph 40.7 mph 30 % 0.0 in 367.0 W/m2 CLR
15:19 6.4 °F -9.9 °F 1017.8 in NW 37.0 mph 37.0 mph 30 % 0.0 in 359.0 W/m2 CLR
15:24 6.6 °F -10.2 °F 1017.8 in NW 41.8 mph 41.8 mph 29 % 0.0 in 343.0 W/m2 CLR
15:29 6.7 °F -9.7 °F 1017.8 in NW 35.4 mph 35.4 mph 30 % 0.0 in 334.0 W/m2 CLR
15:34 6.7 °F -10.2 °F 1017.8 in NW 38.9 mph 38.9 mph 29 % 0.0 in 325.0 W/m2 CLR
15:39 6.5 °F -10.3 °F 1017.8 in NNW 41.8 mph 41.8 mph 29 % 0.0 in 316.0 W/m2 CLR
15:44 6.6 °F -10.2 °F 1017.8 in NW 38.9 mph 38.9 mph 29 % 0.0 in 304.0 W/m2 CLR
15:49 6.4 °F -10.3 °F 1017.8 in NW 42.6 mph 42.6 mph 29 % 0.0 in 294.0 W/m2 CLR
15:54 6.4 °F -10.8 °F 1017.8 in NW 40.7 mph 40.7 mph 28 % 0.0 in 281.0 W/m2 CLR
15:59 6.4 °F -10.8 °F 1017.8 in NW 35.2 mph 35.2 mph 28 % 0.0 in 269.0 W/m2 CLR
16:04 6.4 °F -10.8 °F 1017.8 in WNW 31.5 mph 31.5 mph 28 % 0.0 in 253.0 W/m2 CLR
16:09 6.4 °F -10.8 °F 1018.2 in WNW 27.8 mph 27.8 mph 28 % 0.0 in 241.0 W/m2 CLR
16:10 6.4 °F -10.8 °F 1018.2 in WNW 31.5 mph 31.5 mph 28 % 0.0 in 241.0 W/m2 CLR
16:15 6.6 °F -10.7 °F 1017.8 in NW 27.8 mph 27.8 mph 28 % 0.0 in 223.0 W/m2 CLR
16:20 6.6 °F -11.6 °F 1017.8 in NW 35.2 mph 35.2 mph 26 % 0.0 in 209.0 W/m2 CLR
16:25 6.6 °F -11.6 °F 1018.2 in NNW 37.0 mph 37.0 mph 26 % 0.0 in 193.0 W/m2 CLR
16:30 6.4 °F -11.8 °F 1018.2 in NNW 33.3 mph 33.3 mph 26 % 0.0 in 179.0 W/m2 CLR
16:35 6.2 °F -12.4 °F 1018.5 in NW 42.6 mph 42.6 mph 25 % 0.0 in 162.0 W/m2 CLR
16:40 6.0 °F -12.6 °F 1018.5 in NW 33.8 mph 33.8 mph 25 % 0.0 in 148.0 W/m2 CLR
16:45 5.9 °F -12.2 °F 1018.5 in NNW 20.4 mph 20.4 mph 26 % 0.0 in 134.0 W/m2 CLR
16:50 5.9 °F -12.2 °F 1018.2 in NW 35.2 mph 35.2 mph 26 % 0.0 in 120.0 W/m2 CLR
16:55 5.7 °F -12.4 °F 1018.5 in NW 33.3 mph 33.3 mph 26 % 0.0 in 104.0 W/m2 CLR
17:00 5.6 °F -12.5 °F 1018.5 in NNW 35.4 mph 35.4 mph 26 % 0.0 in 90.0 W/m2 CLR
17:05 5.5 °F -12.1 °F 1018.5 in NW 29.6 mph 29.6 mph 27 % 0.0 in 62.0 W/m2 CLR
17:10 5.4 °F -11.7 °F 1018.5 in NW 25.9 mph 25.9 mph 28 % 0.0 in 47.0 W/m2 CLR
17:15 5.1 °F -11.9 °F 1018.5 in NNW 31.5 mph 31.5 mph 28 % 0.0 in 49.0 W/m2 OVC
17:20 4.9 °F -12.1 °F 1018.5 in NW 35.2 mph 35.2 mph 28 % 0.0 in 39.0 W/m2 OVC
17:25 4.7 °F -11.8 °F 1018.5 in NW 40.7 mph 40.7 mph 29 % 0.0 in 30.0 W/m2 OVC
17:30 4.6 °F -11.9 °F 1018.5 in NW 35.2 mph 35.2 mph 29 % 0.0 in 21.0 W/m2 OVC
17:35 4.4 °F -12.1 °F 1018.5 in NW 46.7 mph 46.7 mph 29 % 0.0 in 16.0 W/m2 OVC
17:40 4.3 °F -11.8 °F 1018.5 in NW 31.5 mph 31.5 mph 30 % 0.0 in 12.0 W/m2 OVC
17:45 4.1 °F -11.9 °F 1018.8 in NW 31.5 mph 31.5 mph 30 % 0.0 in 11.0 W/m2 OVC
17:50 3.9 °F -11.7 °F 1018.8 in NW 33.3 mph 33.3 mph 31 % 0.0 in 9.0 W/m2 OVC
17:55 3.8 °F -11.8 °F 1018.8 in NW 25.9 mph 25.9 mph 31 % 0.0 in 7.0 W/m2 OVC
18:00 3.7 °F -11.9 °F 1018.8 in NW 33.3 mph 33.3 mph 31 % 0.0 in 0.0 W/m2 CLR
18:05 3.6 °F -11.6 °F 1018.8 in NW 31.5 mph 31.5 mph 32 % 0.0 in 0.0 W/m2 CLR
18:10 3.4 °F -11.7 °F 1018.8 in NW 33.3 mph 33.3 mph 32 % 0.0 in 0.0 W/m2 CLR
18:15 3.3 °F -11.4 °F 1018.8 in NW 27.8 mph 27.8 mph 33 % 0.0 in 0.0 W/m2 CLR
18:20 3.3 °F -11.5 °F 1019.2 in NW 31.5 mph 31.5 mph 33 % 0.0 in 0.0 W/m2 CLR
18:25 3.2 °F -11.2 °F 1019.2 in NW 29.6 mph 29.6 mph 34 % 0.0 in 0.0 W/m2 CLR
18:30 3.0 °F -11.4 °F 1019.2 in NW 31.5 mph 31.5 mph 34 % 0.0 in 0.0 W/m2 CLR
18:35 2.9 °F -11.1 °F 1019.2 in NW 24.1 mph 24.1 mph 35 % 0.0 in 0.0 W/m2 CLR
18:40 2.8 °F -11.2 °F 1019.2 in NW 31.5 mph 31.5 mph 35 % 0.0 in 0.0 W/m2 CLR
18:46 2.8 °F -11.2 °F 1019.5 in NW 37.0 mph 37.0 mph 35 % 0.0 in 0.0 W/m2 CLR
18:51 2.7 °F -10.9 °F 1019.5 in NW 25.9 mph 25.9 mph 36 % 0.0 in 0.0 W/m2 CLR
18:56 2.6 °F -11.0 °F 1019.5 in NW 35.2 mph 35.2 mph 36 % 0.0 in 0.0 W/m2 CLR
19:01 2.5 °F -11.1 °F 1019.5 in NW 25.9 mph 25.9 mph 36 % 0.0 in 0.0 W/m2 CLR
19:06 2.4 °F -10.8 °F 1019.9 in NW 29.6 mph 29.6 mph 37 % 0.0 in 0.0 W/m2 CLR
19:11 2.3 °F -10.9 °F 1019.9 in NW 27.8 mph 27.8 mph 37 % 0.0 in 0.0 W/m2 CLR
19:16 2.3 °F -10.9 °F 1019.9 in NW 31.5 mph 31.5 mph 37 % 0.0 in 0.0 W/m2 CLR
19:21 2.3 °F -10.9 °F 1019.9 in NW 32.2 mph 32.2 mph 37 % 0.0 in 0.0 W/m2 CLR
19:26 2.3 °F -10.9 °F 1019.9 in NW 31.5 mph 31.5 mph 37 % 0.0 in 0.0 W/m2 CLR
19:31 2.1 °F -10.8 °F 1020.2 in NW 22.2 mph 22.2 mph 38 % 0.0 in 0.0 W/m2 CLR
19:36 2.0 °F -10.8 °F 1020.2 in NW 31.5 mph 31.5 mph 38 % 0.0 in 0.0 W/m2 CLR
19:41 1.9 °F -10.6 °F 1020.2 in WNW 27.8 mph 27.8 mph 39 % 0.0 in 0.0 W/m2 CLR
19:46 1.9 °F -10.6 °F 1020.2 in WNW 29.6 mph 29.6 mph 39 % 0.0 in 0.0 W/m2 CLR
19:51 1.7 °F -10.8 °F 1020.2 in NW 24.1 mph 24.1 mph 39 % 0.0 in 0.0 W/m2 CLR
19:56 1.6 °F -10.6 °F 1020.2 in NW 31.5 mph 31.5 mph 40 % 0.0 in 0.0 W/m2 CLR
20:01 1.6 °F -10.6 °F 1020.2 in NW 24.1 mph 24.1 mph 40 % 0.0 in 0.0 W/m2 CLR
20:06 1.6 °F -10.6 °F 1020.5 in WNW 29.6 mph 29.6 mph 40 % 0.0 in 0.0 W/m2 CLR
20:11 1.6 °F -10.6 °F 1020.5 in WNW 22.2 mph 22.2 mph 40 % 0.0 in 0.0 W/m2 CLR
20:16 1.4 °F -10.4 °F 1020.2 in WNW 27.4 mph 27.4 mph 41 % 0.0 in 0.0 W/m2 CLR
20:21 1.3 °F -10.5 °F 1020.5 in WNW 22.5 mph 22.5 mph 41 % 0.0 in 0.0 W/m2 CLR
20:26 1.2 °F -10.6 °F 1020.5 in WNW 25.9 mph 25.9 mph 41 % 0.0 in 0.0 W/m2 CLR
20:31 1.2 °F -10.3 °F 1020.5 in WNW 27.8 mph 27.8 mph 42 % 0.0 in 0.0 W/m2 CLR
20:36 1.2 °F -10.3 °F 1020.5 in WNW 31.5 mph 31.5 mph 42 % 0.0 in 0.0 W/m2 CLR
20:41 1.2 °F -10.6 °F 1020.5 in WNW 32.2 mph 32.2 mph 41 % 0.0 in 0.0 W/m2 CLR
20:46 1.2 °F -10.3 °F 1020.5 in WNW 25.9 mph 25.9 mph 42 % 0.0 in 0.0 W/m2 CLR
20:51 1.0 °F -10.5 °F 1020.5 in WNW 29.0 mph 29.0 mph 42 % 0.0 in 0.0 W/m2 CLR
20:56 0.9 °F -10.3 °F 1020.9 in WNW 31.5 mph 31.5 mph 43 % 0.0 in 0.0 W/m2 CLR
21:01 0.9 °F -10.3 °F 1020.9 in WNW 29.6 mph 29.6 mph 43 % 0.0 in 0.0 W/m2 CLR
21:06 0.8 °F -10.3 °F 1020.9 in WNW 24.1 mph 24.1 mph 43 % 0.0 in 0.0 W/m2 CLR
21:11 0.7 °F -10.2 °F 1020.9 in WNW 25.9 mph 25.9 mph 44 % 0.0 in 0.0 W/m2 CLR
21:16 0.7 °F -10.2 °F 1020.9 in WNW 27.8 mph 27.8 mph 44 % 0.0 in 0.0 W/m2 CLR
21:21 0.7 °F -10.2 °F 1020.9 in WNW 20.9 mph 20.9 mph 44 % 0.0 in 0.0 W/m2 CLR
21:26 0.7 °F -9.9 °F 1021.2 in WNW 25.9 mph 25.9 mph 45 % 0.0 in 0.0 W/m2 CLR
21:31 0.7 °F -9.9 °F 1021.2 in West 24.1 mph 24.1 mph 45 % 0.0 in 0.0 W/m2 CLR
21:36 0.7 °F -9.7 °F 1020.9 in West 25.7 mph 25.7 mph 46 % 0.0 in 0.0 W/m2 CLR
21:41 0.6 °F -9.8 °F 1020.9 in WNW 27.8 mph 27.8 mph 46 % 0.0 in 0.0 W/m2 CLR
21:46 0.6 °F -9.8 °F 1021.2 in West 31.5 mph 31.5 mph 46 % 0.0 in 0.0 W/m2 CLR
21:51 0.6 °F -9.5 °F 1021.2 in West 20.4 mph 20.4 mph 47 % 0.0 in 0.0 W/m2 CLR
21:56 0.5 °F -9.3 °F 1021.2 in West 25.9 mph 25.9 mph 48 % 0.0 in 0.0 W/m2 CLR
22:01 0.4 °F -9.3 °F 1021.2 in West 20.4 mph 20.4 mph 48 % 0.0 in 0.0 W/m2 CLR
22:06 0.4 °F -9.1 °F 1021.2 in West 22.2 mph 22.2 mph 49 % 0.0 in 0.0 W/m2 CLR
22:11 0.3 °F -8.9 °F 1021.2 in West 25.9 mph 25.9 mph 50 % 0.0 in 0.0 W/m2 CLR
22:16 0.3 °F -8.9 °F 1021.6 in West 20.9 mph 20.9 mph 50 % 0.0 in 0.0 W/m2 CLR
22:21 0.2 °F -8.7 °F 1021.6 in West 19.3 mph 19.3 mph 51 % 0.0 in 0.0 W/m2 CLR
22:26 0.2 °F -8.6 °F 1021.6 in West 20.4 mph 20.4 mph 52 % 0.0 in 0.0 W/m2 CLR
22:31 0.1 °F -8.6 °F 1021.6 in West 16.7 mph 16.7 mph 52 % 0.0 in 0.0 W/m2 CLR
22:36 0.0 °F -8.2 °F 1021.6 in WSW 20.4 mph 20.4 mph 54 % 0.0 in 0.0 W/m2 CLR
22:41 -0.1 °F -8.3 °F 1021.9 in WSW 18.5 mph 18.5 mph 54 % 0.0 in 0.0 W/m2 CLR
22:46 -0.1 °F -8.1 °F 1021.9 in WSW 20.9 mph 20.9 mph 55 % 0.0 in 0.0 W/m2 CLR
22:51 0.0 °F -8.0 °F 1021.9 in WSW 18.5 mph 18.5 mph 55 % 0.0 in 0.0 W/m2 CLR
22:56 -0.1 °F -7.8 °F 1021.9 in West 25.9 mph 25.9 mph 56 % 0.0 in 0.0 W/m2 CLR
23:01 -0.1 °F -7.8 °F 1021.9 in WSW 18.5 mph 18.5 mph 56 % 0.0 in 0.0 W/m2 CLR
23:07 -0.1 °F -7.8 °F 1021.9 in West 25.9 mph 25.9 mph 56 % 0.0 in 0.0 W/m2 CLR
23:12 -0.1 °F -7.6 °F 1021.9 in West 19.3 mph 19.3 mph 57 % 0.0 in 0.0 W/m2 CLR
23:17 -0.1 °F -7.6 °F 1021.9 in West 18.5 mph 18.5 mph 57 % 0.0 in 0.0 W/m2 CLR
23:22 -0.2 °F -7.7 °F 1021.9 in WSW 20.9 mph 20.9 mph 57 % 0.0 in 0.0 W/m2 CLR
23:27 -0.2 °F -7.7 °F 1021.9 in WSW 18.5 mph 18.5 mph 57 % 0.0 in 0.0 W/m2 CLR
23:32 -0.3 °F -7.8 °F 1021.9 in WSW 18.5 mph 18.5 mph 57 % 0.0 in 0.0 W/m2 CLR
23:37 -0.2 °F -7.5 °F 1022.2 in West 22.2 mph 22.2 mph 58 % 0.0 in 0.0 W/m2 CLR
23:42 -0.2 °F -7.7 °F 1022.2 in West 18.5 mph 18.5 mph 57 % 0.0 in 0.0 W/m2 CLR
23:47 -0.2 °F -7.5 °F 1021.9 in West 22.5 mph 22.5 mph 58 % 0.0 in 0.0 W/m2 CLR
23:52 -0.2 °F -7.7 °F 1022.2 in West 22.2 mph 22.2 mph 57 % 0.0 in 0.0 W/m2 CLR
23:57 -0.2 °F -7.7 °F 1022.2 in West 20.4 mph 20.4 mph 57 % 0.0 in 0.0 W/m2 CLR
Lo Temps de Massalio
Compliments of Weather Underground - 1.25 mb